グアヤキル の空港の天気 - METARとTAF

グアヤキル空港 ( SEGU / GYE ) - エクアドル グアヤキル
飛行場実況気象(Metar)
観測時間12/06 15:00 ECT (12/06 20:00 UTC)
風向・風速南南東 4m/s
視程10km以上
天気現象
少しの雲 雲底高度 790m
全天の8割程度の雲 雲底高度 3050m
気温28℃
湿度66%
気圧1010hPa
METARSEGU 062000Z 15008KT 9999 FEW026 BKN100 28/21 Q1010 NOSIG RMK A2984
過去の天気等 Google飛行場航空写真 Wunderground天気予報

過去48時間のMETAR

飛行場予報(TAF)
発表時間: 12/06 11:40 ECT (12/06 16:40 UTC)
予報対象時間: 6日13時 ECT ~ 7日13時 ECT
風向・風速南東 3m/s
視程10km以上
全天の4割程度の雲 雲底高度 790m
全天の4割程度の雲 雲底高度 3050m
6日17時 ECT ~ 6日18時 ECT に徐々に
風向・風速南南西 7m/s
6日23時 ECT から
風向・風速南西 5m/s
視程10km以上
全天の8割程度の雲 雲底高度 610m
全天の8割程度の雲 雲底高度 2440m
7日10時 ECT から
風向・風速南南東 3m/s
視程10km以上
全天の4割程度の雲 雲底高度 700m
全天の8割程度の雲 雲底高度 3050m
SEGU 061640Z 0618/0718 14005KT 9999 SCT026 SCT100
BECMG 0622/0623 20013KT
FM070400 23009KT 9999 BKN020 BKN080
FM071500 16005KT 9999 SCT023 BKN100 TX30/0619Z TN23/0711Z